Redmond, WA (98053)

8:03 AM PST on December 27, 2014 (GMT -0800)
Redmond Ridge East | Change Station
CLOSE
Current Station
Personal Weather Station
Location: Redmond, WA
Elevation: 643 ft
Nearby Weather Stations

Elev 643 ft 47.70 °N, 122.02 °W | Updated 2 minutes ago

Rain
Rain
41.3 °F
Feels Like 41 °F
N
0.0
Wind Variable Wind from ESE
Gusts 0.0 mph

Today
High -- | Low -- °F
--% Chance of Precip.
Yesterday
High -- | Low -- °F
Precip. -- in
7:55 AM 4:22 PM
Waxing Crescent, 37% visible
Pressure 30.16 in
Visibility 5.0 miles
Clouds Overcast 1800 ft
Windchill 41 °F
Dew Point 41 °F
Humidity 99%
Rainfall 0.23 in
Snow Depth Not available.
UV 0 out of 12
Pollen .50 out of 12
Air Quality Not available.
Flu Activity Not available.
METAR KRNT 271553Z 14005KT 5SM -RA BR OVC018 05/04 A3014 RMK AO2 RAB41 SLP212 P0000 T00500044

More Conditions Fewer Conditions

Pressure 30.16 in
Visibility 5.0 miles
Clouds Overcast 1800 ft
Windchill 41 °F
Dew Point 41 °F
Humidity 99%
Rainfall 0.23 in
Snow Depth Not available.
UV 0 out of 12
Pollen .50 out of 12
Air Quality Not available.
Flu Activity Not available.
METAR KRNT 271553Z 14005KT 5SM -RA BR OVC018 05/04 A3014 RMK AO2 RAB41 SLP212 P0000 T00500044

More Conditions Fewer Conditions

10-Day Weather Forecast

Almanac

Astronomy

Dec. 27, 2014 Rise Set
Actual Time
Civil Twilight
Nautical Twilight
Astronomical Twilight
Moon
Length of Visible Light
Length of Day
Tomorrow will be .
, % of the Moon is Illuminated

Today's Extremes

State Highs State Lows

Community

WunderPhotos

Upload Photos

1,780,942 photos uploaded!

WunderBlogs® & News

Nearby

Air Quality

  Air Quality AQ Index Pollutant
Not available.

Snow Depth

Station Depth Elevation

Earthquake Activity

City Distance Mag. Time & Date
Minimum magnitude displayed is 2.5.

Coastal Water Temperatures

Place Temperature

Nearby Weather Stations